Latest Weather Observations for Sydney - Observatory Hill

IDN60901

Issued at 2:25 pm EST Wednesday 16 April 2014 (issued every 10 minutes, with the page automatically refreshed every 10 minutes)

About weather observations | Map of Sydney area stations | Latest observations for Sydney area | Other Formats
Station Details ID: 066062 Name: SYDNEY (OBSERVATORY HILL) Lat: -33.86 Lon: 151.21 Height: 39.0 m
Data from the previous 72 hours. | See also: Recent months at Sydney - Observatory Hill

* Apparent temperature (App Temp) for Sydney - Observatory Hill is calculated using temperature observations collected at Sydney - Observatory Hill and wind observations collected at Fort Denison, as wind observations are not currently provided for Sydney - Observatory Hill.

Date/Time
EST
Tmp

°C
App
Tmp
°C
Dew
Point
°C
Rel
Hum
%
Delta-T

°C
Wind Press
QNH
hPa
Press
MSL
hPa
Rain
since
9 am
mm
Dir
 
Spd
km/h
Gust
km/h
Spd
kts
Gust
kts
16/02:00pm 22.4 19.4 12.6 54 5.6 - 20 - 11 - 1017.5 1017.4 0.0
16/01:30pm 22.0 18.8 13.1 57 5.1 - 22 - 12 - 1017.6 - 0.0
16/01:00pm 21.9 18.3 11.9 53 5.6 - 22 - 12 - 1017.9 1017.8 0.0
16/12:30pm 21.9 17.6 12.2 54 5.5 - 26 - 14 - 1018.3 - 0.0
16/12:00pm 22.2 19.0 13.0 56 5.3 - 22 - 12 - 1018.7 1018.7 0.0
16/11:30am 21.8 18.9 13.9 61 4.6 - 22 - 12 - 1019.0 - 0.0
16/11:00am 20.3 16.6 12.8 62 4.2 - 24 - 13 - 1019.3 1019.3 0.0
16/10:30am 20.2 17.4 13.2 64 4.0 - 20 - 11 - 1019.5 - 0.0
16/10:00am 19.9 17.1 13.1 65 3.9 - 20 - 11 - 1019.6 1019.6 0.0
16/09:30am 18.7 16.7 12.7 68 3.4 - 15 - 8 - 1019.8 - 0.0
16/09:00am 17.7 14.5 11.9 69 3.2 - 20 - 11 - 1019.9 1019.8 29.6
16/08:30am 17.2 14.0 11.9 71 2.9 - 20 - 11 - 1019.9 - 29.6
16/08:00am 15.9 12.8 11.5 75 2.4 - 19 - 10 - 1019.8 1019.7 29.6
16/07:30am 15.7 12.4 11.7 77 2.2 - 20 - 11 - 1019.5 - 29.6
16/07:00am 14.8 11.1 11.4 80 1.8 - 22 - 12 - 1019.2 1019.2 29.6
16/06:30am 14.4 10.3 11.4 82 1.6 - 24 - 13 - 1018.8 - 29.6
16/06:00am 14.4 10.3 11.4 82 1.6 - 24 - 13 - 1018.6 1018.6 29.6
16/05:30am 14.5 10.4 11.5 82 1.6 - 24 - 13 - 1018.6 - 29.6
16/05:00am 14.5 10.4 11.6 83 1.6 - 24 - 13 - 1018.5 1018.5 29.6
16/04:30am 14.7 11.5 11.8 83 1.6 - 20 - 11 - 1018.4 - 29.6
16/04:00am 14.9 12.0 12.2 84 1.5 - 19 - 10 - 1018.3 1018.2 29.6
16/03:30am 15.0 12.9 12.5 85 1.4 - 15 - 8 - 1018.4 - 29.6
16/03:00am 15.0 12.0 12.5 85 1.4 - 20 - 11 - 1018.3 1018.2 29.2
16/02:30am 15.4 12.1 12.9 85 1.4 - 22 - 12 - 1018.5 - 29.2
16/02:00am 15.7 13.2 13.5 87 1.2 - 19 - 10 - 1018.8 1018.8 29.2
16/01:30am 15.8 13.4 13.8 88 1.1 - 19 - 10 - 1019.0 - 29.2
16/01:00am 15.7 14.5 13.9 89 1.0 - 13 - 7 - 1019.2 1019.2 29.2
16/12:30am 15.8 13.8 14.0 89 1.0 - 17 - 9 - 1019.5 - 29.2
16/12:00am 15.8 13.8 14.0 89 1.0 - 17 - 9 - 1019.6 1019.6 29.2
 
Date/Time
EST
Tmp

°C
App
Tmp
°C
Dew
Point
°C
Rel
Hum
%
Delta-T

°C
Wind Press
QNH
hPa
Press
MSL
hPa
Rain
since
9 am
mm
Dir
 
Spd
km/h
Gust
km/h
Spd
kts
Gust
kts
15/11:30pm 16.0 14.2 14.4 90 0.9 - 17 - 9 - 1019.9 - 28.8
15/11:00pm 16.3 14.0 14.7 90 0.9 - 20 - 11 - 1019.9 1019.8 28.8
15/10:30pm 16.4 14.2 14.8 90 0.9 - 20 - 11 - 1019.9 - 28.2
15/10:00pm 16.6 15.7 14.8 89 1.0 - 13 - 7 - 1020.1 1020.0 18.0
15/09:30pm 16.5 14.1 14.5 88 1.1 - 20 - 11 - 1020.3 - 17.8
15/09:00pm 16.4 14.1 14.2 87 1.3 - 19 - 10 - 1020.1 1020.0 16.0
15/08:30pm 16.7 14.1 14.9 89 1.0 - 22 - 12 - 1019.8 - 15.0
15/08:00pm 16.7 14.5 14.9 89 1.0 - 20 - 11 - 1019.9 1019.8 13.8
15/07:30pm 16.7 15.7 14.7 88 1.2 - 13 - 7 - 1019.6 - 8.6
15/07:00pm 16.6 14.5 14.6 88 1.1 - 19 - 10 - 1019.5 1019.5 8.4
15/06:30pm 17.0 14.8 14.8 87 1.3 - 20 - 11 - 1019.6 - 7.0
15/06:00pm 17.3 16.0 14.9 86 1.4 - 15 - 8 - 1019.2 1019.2 6.6
15/05:30pm 17.8 17.0 15.2 85 1.5 - 13 - 7 - 1018.9 - 3.4
15/05:00pm 18.0 16.9 15.3 84 1.6 - 15 - 8 - 1018.8 1018.8 3.2
15/04:30pm 17.5 16.8 14.2 81 1.9 - 11 - 6 - 1018.5 - 3.2
15/04:00pm 17.8 15.4 14.5 81 1.9 - 20 - 11 - 1018.9 1018.9 2.8
15/03:30pm 18.9 16.9 15.4 80 2.1 - 20 - 11 - 1018.5 - 1.8
15/03:00pm 20.8 16.7 13.7 64 4.1 - 28 - 15 - 1018.4 1018.4 0.0
15/02:30pm 21.2 16.7 11.5 54 5.4 - 26 - 14 - 1018.4 - 0.0
15/02:00pm 21.1 17.7 11.2 53 5.5 - 20 - 11 - 1018.3 1018.2 0.0
15/01:30pm 21.6 18.1 10.1 48 6.2 - 19 - 10 - 1018.3 - 0.0
15/01:00pm 20.8 17.0 9.1 47 6.2 - 19 - 10 - 1018.6 1018.6 0.0
15/12:30pm 21.6 18.1 8.8 44 6.8 - 17 - 9 - 1018.8 - 0.0
15/12:00pm 21.1 18.0 8.7 45 6.5 - 15 - 8 - 1019.3 1019.3 0.0
15/11:30am 21.2 17.4 9.1 46 6.4 - 19 - 10 - 1019.9 - 0.0
15/11:00am 20.8 18.0 10.0 50 5.8 - 15 - 8 - 1020.1 1020.0 0.0
15/10:30am 19.6 17.6 10.0 54 5.1 - 11 - 6 - 1020.3 - 0.0
15/10:00am 19.2 16.6 9.4 53 5.2 - 13 - 7 - 1020.7 1020.6 0.0
15/09:30am 18.6 15.8 9.9 57 4.6 - 15 - 8 - 1020.7 - 0.0
15/09:00am 17.3 12.9 9.0 58 4.3 - 22 - 12 - 1020.8 1020.7 4.2
15/08:30am 16.9 12.9 9.1 60 4.0 - 20 - 11 - 1020.7 - 4.2
15/08:00am 16.2 11.6 9.8 66 3.3 - 24 - 13 - 1020.6 1020.5 4.2
15/07:30am 14.5 10.5 10.5 77 2.1 - 22 - 12 - 1020.5 - 4.2
15/07:00am 13.5 9.1 10.3 81 1.7 - 24 - 13 - 1020.3 1020.2 4.2
15/06:30am 13.6 9.1 10.2 80 1.8 - 24 - 13 - 1020.1 - 4.2
15/06:00am 13.8 9.8 10.6 81 1.7 - 22 - 12 - 1020.0 1019.9 4.2
15/05:30am 14.0 10.5 10.8 81 1.7 - 20 - 11 - 1019.8 - 4.2
15/05:00am 14.0 10.4 10.6 80 1.8 - 20 - 11 - 1019.6 1019.6 4.2
15/04:30am 14.0 10.3 10.2 78 2.0 - 20 - 11 - 1019.8 - 4.2
15/04:00am 14.3 10.3 10.3 77 2.1 - 22 - 12 - 1019.6 1019.6 4.2
15/03:30am 14.5 10.1 10.5 77 2.1 - 24 - 13 - 1019.8 - 4.2
15/03:00am 14.8 11.4 11.4 80 1.8 - 20 - 11 - 1019.8 1019.7 4.2
15/02:30am 15.3 12.9 12.8 85 1.4 - 17 - 9 - 1019.6 - 4.2
15/02:00am 15.3 14.0 12.6 84 1.5 - 11 - 6 - 1019.8 1019.7 4.2
15/01:30am 15.5 14.3 12.8 84 1.5 - 11 - 6 - 1019.9 - 4.2
15/01:00am 15.2 12.3 12.3 83 1.6 - 19 - 10 - 1020.2 1020.1 4.2
15/12:30am 15.3 13.2 12.4 83 1.6 - 15 - 8 - 1020.2 - 4.2
15/12:00am 15.6 12.6 12.4 81 1.8 - 20 - 11 - 1020.4 1020.3 3.0
 
Date/Time
EST
Tmp

°C
App
Tmp
°C
Dew
Point
°C
Rel
Hum
%
Delta-T

°C
Wind Press
QNH
hPa
Press
MSL
hPa
Rain
since
9 am
mm
Dir
 
Spd
km/h
Gust
km/h
Spd
kts
Gust
kts
14/11:30pm 15.9 13.9 12.8 82 1.7 - 15 - 8 - 1020.6 - 2.8
14/11:00pm 16.2 13.9 13.1 82 1.7 - 17 - 9 - 1020.7 1020.6 2.6
14/10:30pm 16.1 12.8 12.7 80 1.9 - 22 - 12 - 1020.8 - 2.6
14/10:00pm 16.1 13.3 13.2 83 1.6 - 20 - 11 - 1020.9 1020.8 2.2
14/09:30pm 16.3 13.9 13.8 85 1.4 - 19 - 10 - 1021.1 - 2.2
14/09:00pm 16.5 16.4 14.0 85 1.4 - 7 - 4 - 1021.0 1020.9 2.2
14/08:30pm 16.5 15.2 13.8 84 1.5 - 13 - 7 - 1021.0 - 2.0
14/08:00pm 16.4 14.7 13.5 83 1.6 - 15 - 8 - 1020.7 1020.6 1.6
14/07:30pm 16.8 15.4 13.5 81 1.9 - 13 - 7 - 1020.8 - 1.0
14/07:00pm 17.0 14.4 13.3 79 2.1 - 19 - 10 - 1020.5 1020.4 1.0
14/06:30pm 17.1 14.5 13.2 78 2.2 - 19 - 10 - 1020.2 - 1.0
14/06:00pm 17.3 15.6 13.6 79 2.1 - 15 - 8 - 1020.0 1019.9 1.0
14/05:30pm 17.5 15.5 13.8 79 2.1 - 17 - 9 - 1019.4 - 1.0
14/05:00pm 18.5 16.2 13.1 71 3.0 - 17 - 9 - 1019.2 1019.2 0.0
14/04:30pm 18.9 16.7 13.3 70 3.2 - 17 - 9 - 1018.8 - 0.0
14/04:00pm 19.2 16.5 13.4 69 3.3 - 20 - 11 - 1018.9 1018.9 0.0
14/03:30pm 20.1 17.8 14.0 68 3.5 - 19 - 10 - 1018.8 - 0.0
14/03:00pm 19.4 17.7 13.6 69 3.3 - 15 - 8 - 1018.8 1018.8 0.0
14/02:30pm 19.3 16.4 13.9 71 3.1 - 22 - 12 - 1018.9 - 0.0
14/02:00pm 19.4 16.9 14.0 71 3.1 - 20 - 11 - 1018.6 1018.6 0.0
14/01:30pm 18.7 16.2 14.2 75 2.6 - 20 - 11 - 1018.8 - 0.0
14/01:00pm 18.6 15.7 13.9 74 2.7 - 22 - 12 - 1019.0 1019.0 0.0
14/12:30pm 18.6 16.3 14.1 75 2.6 - 19 - 10 - 1019.4 - 0.0
14/12:00pm 19.7 15.9 12.5 63 4.0 - 24 - 13 - 1019.6 1019.6 0.0
14/11:30am 20.6 17.8 13.3 63 4.2 - 20 - 11 - 1019.9 - 0.0
14/11:00am 19.6 15.8 13.5 68 3.5 - 26 - 14 - 1020.2 1020.1 0.0
14/10:30am 19.1 15.8 12.8 67 3.5 - 22 - 12 - 1020.3 - 0.0
14/10:00am 18.8 15.6 13.2 70 3.2 - 22 - 12 - 1020.3 1020.2 0.0
14/09:30am 17.8 15.5 11.6 67 3.4 - 15 - 8 - 1020.4 - 0.0
14/09:00am 17.2 13.5 10.3 64 3.7 - 20 - 11 - 1020.5 1020.4 2.8
14/08:30am 16.3 12.2 8.0 58 4.2 - 19 - 10 - 1020.2 - 2.8
14/08:00am 16.0 11.8 8.2 60 3.9 - 20 - 11 - 1019.9 1019.8 2.8
14/07:30am 14.9 9.9 7.9 63 3.5 - 24 - 13 - 1019.3 - 2.8
14/07:00am 13.8 9.7 8.6 71 2.6 - 20 - 11 - 1019.1 1019.1 2.8
14/06:30am 13.6 9.7 8.7 72 2.5 - 19 - 10 - 1019.0 - 2.8
14/06:00am 14.1 10.2 9.3 73 2.4 - 20 - 11 - 1018.9 1018.9 2.8
14/05:30am 13.7 10.4 9.6 76 2.1 - 17 - 9 - 1018.7 - 2.8
14/05:00am 13.9 10.3 9.7 76 2.2 - 19 - 10 - 1018.5 1018.5 2.8
14/04:30am 14.1 10.4 10.1 77 2.1 - 20 - 11 - 1018.2 - 2.8
14/04:00am 14.6 11.5 10.2 75 2.3 - 17 - 9 - 1018.1 1018.0 2.8
14/03:30am 14.7 11.2 10.1 74 2.4 - 19 - 10 - 1017.9 - 2.8
14/03:00am 15.0 11.0 10.4 74 2.4 - 22 - 12 - 1017.8 1017.7 2.8
14/02:30am 15.1 11.1 10.5 74 2.4 - 22 - 12 - 1018.1 - 2.8
14/02:00am 15.2 11.2 10.4 73 2.5 - 22 - 12 - 1018.6 1018.6 2.8
14/01:30am 15.5 11.9 10.5 72 2.6 - 20 - 11 - 1018.9 - 2.8
14/01:00am 15.9 12.3 10.4 70 2.9 - 20 - 11 - 1019.0 1019.0 2.8
14/12:30am 16.2 12.5 10.3 68 3.1 - 20 - 11 - 1019.0 - 2.8
14/12:00am 16.6 13.6 10.5 67 3.2 - 17 - 9 - 1019.3 1019.3 2.8
 
Date/Time
EST
Tmp

°C
App
Tmp
°C
Dew
Point
°C
Rel
Hum
%
Delta-T

°C
Wind Press
QNH
hPa
Press
MSL
hPa
Rain
since
9 am
mm
Dir
 
Spd
km/h
Gust
km/h
Spd
kts
Gust
kts
13/11:30pm 16.7 13.2 10.3 66 3.4 - 19 - 10 - 1019.1 - 2.8
13/11:00pm 16.8 12.7 10.2 65 3.5 - 22 - 12 - 1019.3 1019.3 2.8
13/10:30pm 16.8 13.1 10.0 64 3.6 - 20 - 11 - 1019.4 - 2.8
13/10:00pm 16.9 13.4 10.3 65 3.5 - 19 - 10 - 1019.4 1019.4 2.8
13/09:30pm 17.6 14.6 10.5 63 3.8 - 17 - 9 - 1019.2 - 2.8
13/09:00pm 18.2 15.9 10.3 60 4.2 - 13 - 7 - 1019.2 1019.2 2.8
13/08:30pm 19.1 16.0 10.4 57 4.7 - 17 - 9 - 1018.9 - 2.8
13/08:00pm 19.8 17.4 10.0 53 5.2 - 13 - 7 - 1018.6 1018.6 2.8
13/07:30pm 19.7 17.2 11.2 58 4.7 - 15 - 8 - 1018.2 - 2.8
13/07:00pm 19.8 16.7 11.6 59 4.5 - 19 - 10 - 1017.8 1017.7 2.8
13/06:30pm 19.9 17.6 11.7 59 4.5 - 15 - 8 - 1017.4 - 2.8
13/06:00pm 19.7 16.7 12.7 64 3.9 - 20 - 11 - 1016.9 1016.8 2.8
13/05:30pm 19.5 17.2 13.0 66 3.7 - 17 - 9 - 1016.7 - 2.8
13/05:00pm 18.9 18.0 14.8 77 2.4 - 13 - 7 - 1016.3 1016.2 2.8
13/04:30pm 18.7 17.6 15.2 80 2.1 - 15 - 8 - 1016.2 - 2.8
13/04:00pm 18.6 16.5 15.1 80 2.0 - 20 - 11 - 1016.1 1016.0 2.8
13/03:30pm 18.8 16.3 15.1 79 2.2 - 22 - 12 - 1016.1 - 2.8
13/03:00pm 18.5 17.8 16.5 88 1.2 - 15 - 8 - 1016.2 1016.1 2.8
13/02:30pm 17.6 16.1 15.2 86 1.4 - 17 - 9 - 1016.5 - 2.2

Latest Capital City Observations: Canberra | Sydney | Melbourne | Brisbane | Adelaide | Perth | Hobart | Darwin

Other Formats:

Comma delimited format used in spreadsheet applications
http://www.bom.gov.au/fwo/IDN60901/IDN60901.94768.axf

JavaScript Object Notation format (JSON) in row-major order
http://www.bom.gov.au/fwo/IDN60901/IDN60901.94768.json